sensor_id;sensor_type;location;lat;lon;timestamp;P1;durP1;ratioP1;P2;durP2;ratioP2
70253;SDS011;57649;42.968;1.608;2024-01-30T00:01:40;27.58;;;17.85;;
70253;SDS011;57649;42.968;1.608;2024-01-30T00:04:06;35.83;;;18.83;;
70253;SDS011;57649;42.968;1.608;2024-01-30T00:06:31;33.22;;;19.42;;
70253;SDS011;57649;42.968;1.608;2024-01-30T00:08:57;29.95;;;19.30;;
70253;SDS011;57649;42.968;1.608;2024-01-30T00:11:23;31.23;;;18.83;;
70253;SDS011;57649;42.968;1.608;2024-01-30T00:13:50;31.48;;;18.10;;
70253;SDS011;57649;42.968;1.608;2024-01-30T00:16:23;28.30;;;17.20;;
70253;SDS011;57649;42.968;1.608;2024-01-30T00:18:49;24.77;;;15.00;;
70253;SDS011;57649;42.968;1.608;2024-01-30T00:21:15;26.60;;;13.82;;
70253;SDS011;57649;42.968;1.608;2024-01-30T00:23:41;21.48;;;14.57;;
70253;SDS011;57649;42.968;1.608;2024-01-30T00:26:06;25.45;;;14.30;;
70253;SDS011;57649;42.968;1.608;2024-01-30T00:28:31;26.85;;;15.40;;
70253;SDS011;57649;42.968;1.608;2024-01-30T00:30:57;29.88;;;16.80;;
70253;SDS011;57649;42.968;1.608;2024-01-30T00:33:22;31.15;;;16.52;;
70253;SDS011;57649;42.968;1.608;2024-01-30T00:35:48;35.13;;;18.73;;
70253;SDS011;57649;42.968;1.608;2024-01-30T00:38:13;28.70;;;17.17;;
70253;SDS011;57649;42.968;1.608;2024-01-30T00:40:38;26.73;;;15.93;;
70253;SDS011;57649;42.968;1.608;2024-01-30T00:43:04;29.95;;;16.48;;
70253;SDS011;57649;42.968;1.608;2024-01-30T00:45:29;26.15;;;13.82;;
70253;SDS011;57649;42.968;1.608;2024-01-30T00:47:55;24.23;;;14.95;;
70253;SDS011;57649;42.968;1.608;2024-01-30T00:50:20;24.73;;;14.95;;
70253;SDS011;57649;42.968;1.608;2024-01-30T00:52:45;23.73;;;12.00;;
70253;SDS011;57649;42.968;1.608;2024-01-30T00:55:11;23.58;;;11.82;;
70253;SDS011;57649;42.968;1.608;2024-01-30T00:57:36;18.10;;;10.82;;
70253;SDS011;57649;42.968;1.608;2024-01-30T01:00:02;20.88;;;13.30;;
70253;SDS011;57649;42.968;1.608;2024-01-30T01:02:28;22.90;;;13.00;;
70253;SDS011;57649;42.968;1.608;2024-01-30T01:04:53;27.63;;;13.10;;
70253;SDS011;57649;42.968;1.608;2024-01-30T01:07:20;24.15;;;12.73;;
70253;SDS011;57649;42.968;1.608;2024-01-30T01:09:46;16.90;;;10.65;;
70253;SDS011;57649;42.968;1.608;2024-01-30T01:12:11;22.45;;;13.25;;
70253;SDS011;57649;42.968;1.608;2024-01-30T01:14:36;26.35;;;15.20;;
70253;SDS011;57649;42.968;1.608;2024-01-30T01:17:02;29.38;;;16.00;;
70253;SDS011;57649;42.968;1.608;2024-01-30T01:19:27;29.92;;;15.00;;
70253;SDS011;57649;42.968;1.608;2024-01-30T01:21:53;24.60;;;15.18;;
70253;SDS011;57649;42.968;1.608;2024-01-30T01:24:18;21.08;;;13.70;;
70253;SDS011;57649;42.968;1.608;2024-01-30T01:26:44;27.27;;;16.58;;
70253;SDS011;57649;42.968;1.608;2024-01-30T01:29:09;33.38;;;19.58;;
70253;SDS011;57649;42.968;1.608;2024-01-30T01:31:35;31.88;;;19.15;;
70253;SDS011;57649;42.968;1.608;2024-01-30T01:36:30;18.40;;;11.25;;
70253;SDS011;57649;42.968;1.608;2024-01-30T01:38:55;19.73;;;11.65;;
70253;SDS011;57649;42.968;1.608;2024-01-30T01:41:21;22.73;;;13.13;;
70253;SDS011;57649;42.968;1.608;2024-01-30T01:43:46;19.63;;;12.23;;
70253;SDS011;57649;42.968;1.608;2024-01-30T01:46:11;20.08;;;11.85;;
70253;SDS011;57649;42.968;1.608;2024-01-30T01:48:37;17.02;;;11.48;;
70253;SDS011;57649;42.968;1.608;2024-01-30T01:51:04;20.67;;;11.57;;
70253;SDS011;57649;42.968;1.608;2024-01-30T01:53:30;19.48;;;10.98;;
70253;SDS011;57649;42.968;1.608;2024-01-30T01:55:56;18.92;;;10.70;;
70253;SDS011;57649;42.968;1.608;2024-01-30T01:58:22;17.48;;;10.68;;
70253;SDS011;57649;42.968;1.608;2024-01-30T02:00:48;18.33;;;11.00;;
70253;SDS011;57649;42.968;1.608;2024-01-30T02:03:15;15.25;;;9.85;;
70253;SDS011;57649;42.968;1.608;2024-01-30T02:05:46;13.85;;;9.13;;
70253;SDS011;57649;42.968;1.608;2024-01-30T02:08:11;14.85;;;9.35;;
70253;SDS011;57649;42.968;1.608;2024-01-30T02:10:37;17.42;;;10.18;;
70253;SDS011;57649;42.968;1.608;2024-01-30T02:13:02;14.93;;;9.73;;
70253;SDS011;57649;42.968;1.608;2024-01-30T02:15:28;16.15;;;9.30;;
70253;SDS011;57649;42.968;1.608;2024-01-30T02:17:54;14.88;;;8.95;;
70253;SDS011;57649;42.968;1.608;2024-01-30T02:20:19;14.60;;;9.25;;
70253;SDS011;57649;42.968;1.608;2024-01-30T02:22:46;17.17;;;10.05;;
70253;SDS011;57649;42.968;1.608;2024-01-30T02:25:13;16.30;;;9.05;;
70253;SDS011;57649;42.968;1.608;2024-01-30T02:27:38;17.35;;;9.80;;
70253;SDS011;57649;42.968;1.608;2024-01-30T02:30:04;17.23;;;9.57;;
70253;SDS011;57649;42.968;1.608;2024-01-30T02:32:30;15.85;;;9.85;;
70253;SDS011;57649;42.968;1.608;2024-01-30T02:34:55;18.58;;;10.68;;
70253;SDS011;57649;42.968;1.608;2024-01-30T02:37:20;15.82;;;10.32;;
70253;SDS011;57649;42.968;1.608;2024-01-30T02:39:46;14.55;;;8.57;;
70253;SDS011;57649;42.968;1.608;2024-01-30T02:42:14;17.17;;;9.55;;
70253;SDS011;57649;42.968;1.608;2024-01-30T02:44:39;13.45;;;9.23;;
70253;SDS011;57649;42.968;1.608;2024-01-30T02:47:05;17.10;;;10.95;;
70253;SDS011;57649;42.968;1.608;2024-01-30T02:49:30;18.52;;;10.02;;
70253;SDS011;57649;42.968;1.608;2024-01-30T02:51:55;17.65;;;11.52;;
70253;SDS011;57649;42.968;1.608;2024-01-30T02:54:21;17.38;;;11.50;;
70253;SDS011;57649;42.968;1.608;2024-01-30T02:56:47;15.25;;;10.82;;
70253;SDS011;57649;42.968;1.608;2024-01-30T02:59:13;21.38;;;12.02;;
70253;SDS011;57649;42.968;1.608;2024-01-30T03:01:44;15.07;;;9.18;;
70253;SDS011;57649;42.968;1.608;2024-01-30T03:04:11;13.88;;;8.65;;
70253;SDS011;57649;42.968;1.608;2024-01-30T03:06:37;10.88;;;7.28;;
70253;SDS011;57649;42.968;1.608;2024-01-30T03:09:02;12.90;;;7.88;;
70253;SDS011;57649;42.968;1.608;2024-01-30T03:11:28;16.35;;;8.38;;
70253;SDS011;57649;42.968;1.608;2024-01-30T03:13:53;12.35;;;8.23;;
70253;SDS011;57649;42.968;1.608;2024-01-30T03:16:19;12.57;;;8.35;;
70253;SDS011;57649;42.968;1.608;2024-01-30T03:18:44;11.95;;;8.00;;
70253;SDS011;57649;42.968;1.608;2024-01-30T03:21:09;14.57;;;8.75;;
70253;SDS011;57649;42.968;1.608;2024-01-30T03:23:35;13.60;;;8.27;;
70253;SDS011;57649;42.968;1.608;2024-01-30T03:26:00;19.73;;;9.30;;
70253;SDS011;57649;42.968;1.608;2024-01-30T03:28:26;14.15;;;7.90;;
70253;SDS011;57649;42.968;1.608;2024-01-30T03:30:51;13.32;;;8.00;;
70253;SDS011;57649;42.968;1.608;2024-01-30T03:33:16;13.55;;;7.85;;
70253;SDS011;57649;42.968;1.608;2024-01-30T03:35:42;11.20;;;7.18;;
70253;SDS011;57649;42.968;1.608;2024-01-30T03:38:07;12.95;;;7.78;;
70253;SDS011;57649;42.968;1.608;2024-01-30T03:40:33;15.52;;;8.15;;
70253;SDS011;57649;42.968;1.608;2024-01-30T03:42:58;13.52;;;7.75;;
70253;SDS011;57649;42.968;1.608;2024-01-30T03:45:24;10.45;;;7.38;;
70253;SDS011;57649;42.968;1.608;2024-01-30T03:47:49;12.05;;;7.45;;
70253;SDS011;57649;42.968;1.608;2024-01-30T03:50:14;11.38;;;6.88;;
70253;SDS011;57649;42.968;1.608;2024-01-30T03:52:40;43.00;;;25.23;;
70253;SDS011;57649;42.968;1.608;2024-01-30T03:55:05;30.10;;;20.30;;
70253;SDS011;57649;42.968;1.608;2024-01-30T03:57:31;39.92;;;25.70;;
70253;SDS011;57649;42.968;1.608;2024-01-30T03:59:56;20.88;;;12.70;;
70253;SDS011;57649;42.968;1.608;2024-01-30T04:02:22;13.55;;;8.95;;
70253;SDS011;57649;42.968;1.608;2024-01-30T04:04:47;15.50;;;8.02;;
70253;SDS011;57649;42.968;1.608;2024-01-30T04:07:12;14.35;;;7.95;;
70253;SDS011;57649;42.968;1.608;2024-01-30T04:09:38;14.60;;;7.28;;
70253;SDS011;57649;42.968;1.608;2024-01-30T04:12:04;12.05;;;8.25;;
70253;SDS011;57649;42.968;1.608;2024-01-30T04:14:29;12.10;;;7.90;;
70253;SDS011;57649;42.968;1.608;2024-01-30T04:16:55;14.50;;;9.30;;
70253;SDS011;57649;42.968;1.608;2024-01-30T04:19:20;13.82;;;8.63;;
70253;SDS011;57649;42.968;1.608;2024-01-30T04:21:45;18.25;;;10.02;;
70253;SDS011;57649;42.968;1.608;2024-01-30T04:24:11;15.60;;;9.35;;
70253;SDS011;57649;42.968;1.608;2024-01-30T04:26:36;16.50;;;9.13;;
70253;SDS011;57649;42.968;1.608;2024-01-30T04:29:02;17.27;;;10.07;;
70253;SDS011;57649;42.968;1.608;2024-01-30T04:31:27;15.55;;;10.02;;
70253;SDS011;57649;42.968;1.608;2024-01-30T04:33:53;17.25;;;10.05;;
70253;SDS011;57649;42.968;1.608;2024-01-30T04:36:18;15.30;;;8.77;;
70253;SDS011;57649;42.968;1.608;2024-01-30T04:38:43;12.38;;;7.32;;
70253;SDS011;57649;42.968;1.608;2024-01-30T04:41:09;12.88;;;6.78;;
70253;SDS011;57649;42.968;1.608;2024-01-30T04:43:34;13.95;;;7.70;;
70253;SDS011;57649;42.968;1.608;2024-01-30T04:46:00;12.27;;;7.65;;
70253;SDS011;57649;42.968;1.608;2024-01-30T04:48:26;12.82;;;9.05;;
70253;SDS011;57649;42.968;1.608;2024-01-30T04:50:52;15.25;;;8.75;;
70253;SDS011;57649;42.968;1.608;2024-01-30T04:53:17;11.93;;;7.88;;
70253;SDS011;57649;42.968;1.608;2024-01-30T04:55:42;12.40;;;8.07;;
70253;SDS011;57649;42.968;1.608;2024-01-30T04:58:08;11.35;;;7.65;;
70253;SDS011;57649;42.968;1.608;2024-01-30T05:00:33;15.90;;;8.35;;
70253;SDS011;57649;42.968;1.608;2024-01-30T05:02:58;12.73;;;7.10;;
70253;SDS011;57649;42.968;1.608;2024-01-30T05:05:24;12.60;;;8.00;;
70253;SDS011;57649;42.968;1.608;2024-01-30T05:07:49;9.77;;;6.97;;
70253;SDS011;57649;42.968;1.608;2024-01-30T05:10:15;11.85;;;6.30;;
70253;SDS011;57649;42.968;1.608;2024-01-30T05:12:40;14.23;;;7.53;;
70253;SDS011;57649;42.968;1.608;2024-01-30T05:15:06;13.02;;;7.50;;
70253;SDS011;57649;42.968;1.608;2024-01-30T05:17:31;13.30;;;6.72;;
70253;SDS011;57649;42.968;1.608;2024-01-30T05:19:58;11.02;;;6.78;;
70253;SDS011;57649;42.968;1.608;2024-01-30T05:22:23;14.60;;;7.03;;
70253;SDS011;57649;42.968;1.608;2024-01-30T05:24:49;11.25;;;7.35;;
70253;SDS011;57649;42.968;1.608;2024-01-30T05:27:14;10.52;;;7.30;;
70253;SDS011;57649;42.968;1.608;2024-01-30T05:29:40;12.43;;;6.43;;
70253;SDS011;57649;42.968;1.608;2024-01-30T05:32:06;12.15;;;6.85;;
70253;SDS011;57649;42.968;1.608;2024-01-30T05:34:31;13.05;;;7.05;;
70253;SDS011;57649;42.968;1.608;2024-01-30T05:36:57;14.45;;;7.82;;
70253;SDS011;57649;42.968;1.608;2024-01-30T05:39:22;14.25;;;8.38;;
70253;SDS011;57649;42.968;1.608;2024-01-30T05:41:48;13.20;;;7.22;;
70253;SDS011;57649;42.968;1.608;2024-01-30T05:44:13;9.10;;;6.50;;
70253;SDS011;57649;42.968;1.608;2024-01-30T05:46:38;12.60;;;6.55;;
70253;SDS011;57649;42.968;1.608;2024-01-30T05:49:04;11.55;;;8.20;;
70253;SDS011;57649;42.968;1.608;2024-01-30T05:51:29;11.20;;;7.00;;
70253;SDS011;57649;42.968;1.608;2024-01-30T05:53:55;14.85;;;7.80;;
70253;SDS011;57649;42.968;1.608;2024-01-30T05:56:20;12.30;;;7.43;;
70253;SDS011;57649;42.968;1.608;2024-01-30T05:58:46;14.70;;;8.32;;
70253;SDS011;57649;42.968;1.608;2024-01-30T06:01:11;11.52;;;7.85;;
70253;SDS011;57649;42.968;1.608;2024-01-30T06:03:36;12.15;;;7.38;;
70253;SDS011;57649;42.968;1.608;2024-01-30T06:06:02;11.90;;;7.00;;
70253;SDS011;57649;42.968;1.608;2024-01-30T06:08:28;11.07;;;6.85;;
70253;SDS011;57649;42.968;1.608;2024-01-30T06:10:53;9.50;;;6.82;;
70253;SDS011;57649;42.968;1.608;2024-01-30T06:13:18;12.27;;;6.47;;
70253;SDS011;57649;42.968;1.608;2024-01-30T06:15:44;9.32;;;7.13;;
70253;SDS011;57649;42.968;1.608;2024-01-30T06:18:09;17.65;;;8.07;;
70253;SDS011;57649;42.968;1.608;2024-01-30T06:20:35;13.60;;;7.90;;
70253;SDS011;57649;42.968;1.608;2024-01-30T06:23:01;15.30;;;6.88;;
70253;SDS011;57649;42.968;1.608;2024-01-30T06:25:26;13.25;;;8.50;;
70253;SDS011;57649;42.968;1.608;2024-01-30T06:27:52;13.07;;;8.32;;
70253;SDS011;57649;42.968;1.608;2024-01-30T06:30:17;14.77;;;7.97;;
70253;SDS011;57649;42.968;1.608;2024-01-30T06:32:43;12.88;;;7.53;;
70253;SDS011;57649;42.968;1.608;2024-01-30T06:35:11;12.30;;;6.53;;
70253;SDS011;57649;42.968;1.608;2024-01-30T06:37:37;12.35;;;6.50;;
70253;SDS011;57649;42.968;1.608;2024-01-30T06:40:05;11.63;;;6.72;;
70253;SDS011;57649;42.968;1.608;2024-01-30T06:42:31;14.75;;;7.72;;
70253;SDS011;57649;42.968;1.608;2024-01-30T06:44:59;12.90;;;8.68;;
70253;SDS011;57649;42.968;1.608;2024-01-30T06:47:25;14.68;;;8.65;;
70253;SDS011;57649;42.968;1.608;2024-01-30T06:49:50;16.08;;;8.10;;
70253;SDS011;57649;42.968;1.608;2024-01-30T06:52:16;12.55;;;8.70;;
70253;SDS011;57649;42.968;1.608;2024-01-30T06:54:44;10.85;;;7.53;;
70253;SDS011;57649;42.968;1.608;2024-01-30T06:57:09;11.35;;;7.50;;
70253;SDS011;57649;42.968;1.608;2024-01-30T06:59:37;11.27;;;7.72;;
70253;SDS011;57649;42.968;1.608;2024-01-30T07:02:06;12.15;;;7.32;;
70253;SDS011;57649;42.968;1.608;2024-01-30T07:04:34;12.43;;;7.05;;
70253;SDS011;57649;42.968;1.608;2024-01-30T07:07:02;9.98;;;6.68;;
70253;SDS011;57649;42.968;1.608;2024-01-30T07:09:27;12.48;;;7.40;;
70253;SDS011;57649;42.968;1.608;2024-01-30T07:11:54;15.77;;;7.93;;
70253;SDS011;57649;42.968;1.608;2024-01-30T07:14:20;12.63;;;8.02;;
70253;SDS011;57649;42.968;1.608;2024-01-30T07:16:46;14.10;;;7.90;;
70253;SDS011;57649;42.968;1.608;2024-01-30T07:19:11;11.32;;;7.63;;
70253;SDS011;57649;42.968;1.608;2024-01-30T07:21:36;12.93;;;7.72;;
70253;SDS011;57649;42.968;1.608;2024-01-30T07:24:02;23.85;;;9.88;;
70253;SDS011;57649;42.968;1.608;2024-01-30T07:26:27;13.95;;;8.23;;
70253;SDS011;57649;42.968;1.608;2024-01-30T07:28:53;18.83;;;9.20;;
70253;SDS011;57649;42.968;1.608;2024-01-30T07:31:18;12.85;;;7.75;;
70253;SDS011;57649;42.968;1.608;2024-01-30T07:33:45;19.75;;;10.13;;
70253;SDS011;57649;42.968;1.608;2024-01-30T07:36:11;15.38;;;9.82;;
70253;SDS011;57649;42.968;1.608;2024-01-30T07:38:36;16.52;;;8.90;;
70253;SDS011;57649;42.968;1.608;2024-01-30T07:41:02;19.08;;;8.40;;
70253;SDS011;57649;42.968;1.608;2024-01-30T07:43:27;20.13;;;11.48;;
70253;SDS011;57649;42.968;1.608;2024-01-30T07:45:53;13.40;;;8.73;;
70253;SDS011;57649;42.968;1.608;2024-01-30T07:48:18;14.65;;;7.70;;
70253;SDS011;57649;42.968;1.608;2024-01-30T07:50:44;14.85;;;9.20;;
70253;SDS011;57649;42.968;1.608;2024-01-30T07:53:09;12.00;;;8.52;;
70253;SDS011;57649;42.968;1.608;2024-01-30T07:55:34;16.15;;;9.30;;
70253;SDS011;57649;42.968;1.608;2024-01-30T07:58:00;15.50;;;8.77;;
70253;SDS011;57649;42.968;1.608;2024-01-30T08:00:26;16.38;;;7.88;;
70253;SDS011;57649;42.968;1.608;2024-01-30T08:02:52;11.50;;;7.50;;
70253;SDS011;57649;42.968;1.608;2024-01-30T08:05:19;16.08;;;8.48;;
70253;SDS011;57649;42.968;1.608;2024-01-30T08:07:44;13.75;;;7.72;;
70253;SDS011;57649;42.968;1.608;2024-01-30T08:10:11;14.10;;;8.75;;
70253;SDS011;57649;42.968;1.608;2024-01-30T08:12:38;20.15;;;12.18;;
70253;SDS011;57649;42.968;1.608;2024-01-30T08:15:04;13.52;;;8.93;;
70253;SDS011;57649;42.968;1.608;2024-01-30T08:17:30;12.82;;;7.40;;
70253;SDS011;57649;42.968;1.608;2024-01-30T08:19:55;16.85;;;7.93;;
70253;SDS011;57649;42.968;1.608;2024-01-30T08:22:20;11.48;;;6.72;;
70253;SDS011;57649;42.968;1.608;2024-01-30T08:24:46;12.45;;;7.70;;
70253;SDS011;57649;42.968;1.608;2024-01-30T08:27:11;16.60;;;9.32;;
70253;SDS011;57649;42.968;1.608;2024-01-30T08:29:37;25.35;;;13.60;;
70253;SDS011;57649;42.968;1.608;2024-01-30T08:32:03;34.05;;;19.73;;
70253;SDS011;57649;42.968;1.608;2024-01-30T08:34:31;31.52;;;19.45;;
70253;SDS011;57649;42.968;1.608;2024-01-30T08:36:58;33.28;;;21.92;;
70253;SDS011;57649;42.968;1.608;2024-01-30T08:39:24;24.58;;;14.20;;
70253;SDS011;57649;42.968;1.608;2024-01-30T08:41:49;25.38;;;15.10;;
70253;SDS011;57649;42.968;1.608;2024-01-30T08:44:15;32.50;;;22.05;;
70253;SDS011;57649;42.968;1.608;2024-01-30T08:46:41;19.80;;;13.57;;
70253;SDS011;57649;42.968;1.608;2024-01-30T08:49:07;13.13;;;8.80;;
70253;SDS011;57649;42.968;1.608;2024-01-30T08:51:33;14.82;;;8.55;;
70253;SDS011;57649;42.968;1.608;2024-01-30T08:53:58;12.40;;;8.15;;
70253;SDS011;57649;42.968;1.608;2024-01-30T08:56:26;14.77;;;8.75;;
70253;SDS011;57649;42.968;1.608;2024-01-30T08:58:52;13.98;;;8.30;;
70253;SDS011;57649;42.968;1.608;2024-01-30T09:01:18;11.57;;;7.30;;
70253;SDS011;57649;42.968;1.608;2024-01-30T09:03:43;12.05;;;7.07;;
70253;SDS011;57649;42.968;1.608;2024-01-30T09:06:10;10.38;;;7.57;;
70253;SDS011;57649;42.968;1.608;2024-01-30T09:08:36;12.10;;;7.85;;
70253;SDS011;57649;42.968;1.608;2024-01-30T09:11:08;13.52;;;8.40;;
70253;SDS011;57649;42.968;1.608;2024-01-30T09:13:37;15.25;;;9.05;;
70253;SDS011;57649;42.968;1.608;2024-01-30T09:16:02;11.80;;;8.13;;
70253;SDS011;57649;42.968;1.608;2024-01-30T09:18:28;12.15;;;8.10;;
70253;SDS011;57649;42.968;1.608;2024-01-30T09:20:54;14.00;;;7.85;;
70253;SDS011;57649;42.968;1.608;2024-01-30T09:23:19;8.30;;;6.07;;
70253;SDS011;57649;42.968;1.608;2024-01-30T09:25:44;13.27;;;6.20;;
70253;SDS011;57649;42.968;1.608;2024-01-30T09:28:10;8.77;;;6.28;;
70253;SDS011;57649;42.968;1.608;2024-01-30T09:30:35;10.75;;;6.15;;
70253;SDS011;57649;42.968;1.608;2024-01-30T09:33:01;14.43;;;6.97;;
70253;SDS011;57649;42.968;1.608;2024-01-30T09:35:26;12.75;;;7.57;;
70253;SDS011;57649;42.968;1.608;2024-01-30T09:37:52;10.20;;;6.93;;
70253;SDS011;57649;42.968;1.608;2024-01-30T09:40:18;12.23;;;7.65;;
70253;SDS011;57649;42.968;1.608;2024-01-30T09:42:46;14.20;;;8.68;;
70253;SDS011;57649;42.968;1.608;2024-01-30T09:45:13;16.30;;;10.45;;
70253;SDS011;57649;42.968;1.608;2024-01-30T09:47:42;16.13;;;8.63;;
70253;SDS011;57649;42.968;1.608;2024-01-30T09:50:09;14.23;;;8.70;;
70253;SDS011;57649;42.968;1.608;2024-01-30T09:52:35;9.75;;;7.28;;
70253;SDS011;57649;42.968;1.608;2024-01-30T09:55:01;12.45;;;7.72;;
70253;SDS011;57649;42.968;1.608;2024-01-30T09:57:27;12.63;;;7.05;;
70253;SDS011;57649;42.968;1.608;2024-01-30T09:59:53;12.85;;;8.35;;
70253;SDS011;57649;42.968;1.608;2024-01-30T10:02:22;10.02;;;5.53;;
70253;SDS011;57649;42.968;1.608;2024-01-30T10:04:48;9.35;;;5.97;;
70253;SDS011;57649;42.968;1.608;2024-01-30T10:07:17;9.90;;;6.50;;
70253;SDS011;57649;42.968;1.608;2024-01-30T10:09:48;12.45;;;7.28;;
70253;SDS011;57649;42.968;1.608;2024-01-30T10:12:14;13.85;;;7.05;;
70253;SDS011;57649;42.968;1.608;2024-01-30T10:14:41;11.13;;;6.18;;
70253;SDS011;57649;42.968;1.608;2024-01-30T10:17:07;11.02;;;6.20;;
70253;SDS011;57649;42.968;1.608;2024-01-30T10:19:34;17.48;;;5.78;;
70253;SDS011;57649;42.968;1.608;2024-01-30T10:22:00;9.98;;;5.78;;
70253;SDS011;57649;42.968;1.608;2024-01-30T10:24:26;9.90;;;5.25;;
70253;SDS011;57649;42.968;1.608;2024-01-30T10:26:52;7.32;;;5.10;;
70253;SDS011;57649;42.968;1.608;2024-01-30T10:29:18;11.23;;;7.28;;
70253;SDS011;57649;42.968;1.608;2024-01-30T10:31:44;14.68;;;7.55;;
70253;SDS011;57649;42.968;1.608;2024-01-30T10:34:09;14.07;;;8.15;;
70253;SDS011;57649;42.968;1.608;2024-01-30T10:36:40;9.18;;;6.93;;
70253;SDS011;57649;42.968;1.608;2024-01-30T10:39:08;8.95;;;5.88;;
70253;SDS011;57649;42.968;1.608;2024-01-30T10:41:35;11.88;;;6.80;;
70253;SDS011;57649;42.968;1.608;2024-01-30T10:44:10;16.83;;;10.70;;
70253;SDS011;57649;42.968;1.608;2024-01-30T10:46:37;10.52;;;6.90;;
70253;SDS011;57649;42.968;1.608;2024-01-30T10:49:04;13.18;;;8.55;;
70253;SDS011;57649;42.968;1.608;2024-01-30T10:51:31;14.43;;;8.35;;
70253;SDS011;57649;42.968;1.608;2024-01-30T10:53:57;12.88;;;8.05;;
70253;SDS011;57649;42.968;1.608;2024-01-30T10:56:23;8.30;;;6.50;;
70253;SDS011;57649;42.968;1.608;2024-01-30T10:58:50;8.80;;;6.80;;
70253;SDS011;57649;42.968;1.608;2024-01-30T11:01:18;13.13;;;7.18;;
70253;SDS011;57649;42.968;1.608;2024-01-30T11:03:45;12.80;;;7.65;;
70253;SDS011;57649;42.968;1.608;2024-01-30T11:06:11;12.48;;;9.50;;
70253;SDS011;57649;42.968;1.608;2024-01-30T11:08:43;18.77;;;10.75;;
70253;SDS011;57649;42.968;1.608;2024-01-30T11:11:11;8.57;;;6.30;;
70253;SDS011;57649;42.968;1.608;2024-01-30T11:13:37;8.70;;;5.82;;
70253;SDS011;57649;42.968;1.608;2024-01-30T11:16:03;7.57;;;5.25;;
70253;SDS011;57649;42.968;1.608;2024-01-30T11:18:30;14.38;;;6.15;;
70253;SDS011;57649;42.968;1.608;2024-01-30T11:20:57;10.50;;;9.35;;
70253;SDS011;57649;42.968;1.608;2024-01-30T11:23:23;10.55;;;6.25;;
70253;SDS011;57649;42.968;1.608;2024-01-30T11:25:51;13.57;;;6.93;;
70253;SDS011;57649;42.968;1.608;2024-01-30T11:28:17;11.02;;;4.65;;
70253;SDS011;57649;42.968;1.608;2024-01-30T11:30:43;5.43;;;4.00;;
70253;SDS011;57649;42.968;1.608;2024-01-30T11:35:37;8.48;;;4.05;;
70253;SDS011;57649;42.968;1.608;2024-01-30T11:40:32;8.30;;;4.93;;
70253;SDS011;57649;42.968;1.608;2024-01-30T11:43:00;6.20;;;4.47;;
70253;SDS011;57649;42.968;1.608;2024-01-30T11:45:29;5.50;;;3.60;;
70253;SDS011;57649;42.968;1.608;2024-01-30T11:47:56;5.40;;;3.33;;
70253;SDS011;57649;42.968;1.608;2024-01-30T11:50:22;4.57;;;3.70;;
70253;SDS011;57649;42.968;1.608;2024-01-30T11:52:49;11.68;;;6.53;;
70253;SDS011;57649;42.968;1.608;2024-01-30T11:55:15;11.77;;;4.82;;
70253;SDS011;57649;42.968;1.608;2024-01-30T11:57:41;5.57;;;3.47;;
70253;SDS011;57649;42.968;1.608;2024-01-30T12:00:13;7.72;;;2.95;;
70253;SDS011;57649;42.968;1.608;2024-01-30T12:02:40;5.18;;;3.45;;
70253;SDS011;57649;42.968;1.608;2024-01-30T12:05:25;6.22;;;3.70;;
70253;SDS011;57649;42.968;1.608;2024-01-30T12:07:51;6.97;;;3.75;;
70253;SDS011;57649;42.968;1.608;2024-01-30T12:10:17;5.43;;;2.97;;
70253;SDS011;57649;42.968;1.608;2024-01-30T12:12:45;5.90;;;3.38;;
70253;SDS011;57649;42.968;1.608;2024-01-30T12:15:12;7.65;;;3.38;;
70253;SDS011;57649;42.968;1.608;2024-01-30T12:17:39;5.00;;;3.22;;
70253;SDS011;57649;42.968;1.608;2024-01-30T12:22:38;5.57;;;3.38;;
70253;SDS011;57649;42.968;1.608;2024-01-30T12:25:26;8.07;;;4.05;;
70253;SDS011;57649;42.968;1.608;2024-01-30T12:27:51;7.97;;;3.40;;
70253;SDS011;57649;42.968;1.608;2024-01-30T12:30:18;5.28;;;3.63;;
70253;SDS011;57649;42.968;1.608;2024-01-30T12:32:45;6.75;;;3.92;;
70253;SDS011;57649;42.968;1.608;2024-01-30T12:35:13;7.22;;;3.47;;
70253;SDS011;57649;42.968;1.608;2024-01-30T12:37:40;7.57;;;4.10;;
70253;SDS011;57649;42.968;1.608;2024-01-30T12:40:09;6.72;;;3.30;;
70253;SDS011;57649;42.968;1.608;2024-01-30T12:45:02;8.75;;;3.65;;
70253;SDS011;57649;42.968;1.608;2024-01-30T12:47:29;21.83;;;4.55;;
70253;SDS011;57649;42.968;1.608;2024-01-30T12:49:54;9.13;;;3.33;;
70253;SDS011;57649;42.968;1.608;2024-01-30T12:52:20;10.25;;;4.22;;
70253;SDS011;57649;42.968;1.608;2024-01-30T12:54:47;13.63;;;4.03;;
70253;SDS011;57649;42.968;1.608;2024-01-30T12:57:13;10.15;;;4.07;;
70253;SDS011;57649;42.968;1.608;2024-01-30T12:59:38;16.00;;;5.05;;
70253;SDS011;57649;42.968;1.608;2024-01-30T13:02:04;15.45;;;5.65;;
70253;SDS011;57649;42.968;1.608;2024-01-30T13:04:31;11.40;;;5.78;;
70253;SDS011;57649;42.968;1.608;2024-01-30T13:06:56;6.65;;;4.65;;
70253;SDS011;57649;42.968;1.608;2024-01-30T13:09:23;5.63;;;3.58;;
70253;SDS011;57649;42.968;1.608;2024-01-30T13:11:48;5.80;;;2.67;;
70253;SDS011;57649;42.968;1.608;2024-01-30T13:14:17;4.95;;;2.45;;
70253;SDS011;57649;42.968;1.608;2024-01-30T13:16:42;4.75;;;2.92;;
70253;SDS011;57649;42.968;1.608;2024-01-30T13:19:08;7.40;;;2.80;;
70253;SDS011;57649;42.968;1.608;2024-01-30T13:21:33;5.72;;;3.30;;
70253;SDS011;57649;42.968;1.608;2024-01-30T13:23:59;9.23;;;3.58;;
70253;SDS011;57649;42.968;1.608;2024-01-30T13:26:24;7.50;;;3.20;;
70253;SDS011;57649;42.968;1.608;2024-01-30T13:28:50;5.03;;;2.97;;
70253;SDS011;57649;42.968;1.608;2024-01-30T13:31:16;8.73;;;3.22;;
70253;SDS011;57649;42.968;1.608;2024-01-30T13:33:42;5.20;;;3.15;;
70253;SDS011;57649;42.968;1.608;2024-01-30T13:36:08;5.00;;;2.60;;
70253;SDS011;57649;42.968;1.608;2024-01-30T13:38:35;8.75;;;3.28;;
70253;SDS011;57649;42.968;1.608;2024-01-30T13:41:00;5.95;;;2.83;;
70253;SDS011;57649;42.968;1.608;2024-01-30T13:43:26;4.32;;;3.00;;
70253;SDS011;57649;42.968;1.608;2024-01-30T13:45:51;4.70;;;2.40;;
70253;SDS011;57649;42.968;1.608;2024-01-30T13:48:17;5.85;;;2.63;;
70253;SDS011;57649;42.968;1.608;2024-01-30T13:50:43;8.23;;;2.60;;
70253;SDS011;57649;42.968;1.608;2024-01-30T13:53:09;4.72;;;2.90;;
70253;SDS011;57649;42.968;1.608;2024-01-30T13:55:34;5.53;;;2.55;;
70253;SDS011;57649;42.968;1.608;2024-01-30T13:58:00;7.97;;;3.03;;
70253;SDS011;57649;42.968;1.608;2024-01-30T14:00:26;5.80;;;2.42;;
70253;SDS011;57649;42.968;1.608;2024-01-30T14:02:52;4.65;;;2.50;;
70253;SDS011;57649;42.968;1.608;2024-01-30T14:05:20;8.20;;;2.50;;
70253;SDS011;57649;42.968;1.608;2024-01-30T14:07:46;6.07;;;2.65;;
70253;SDS011;57649;42.968;1.608;2024-01-30T14:10:12;5.30;;;2.58;;
70253;SDS011;57649;42.968;1.608;2024-01-30T14:12:37;4.43;;;2.55;;
70253;SDS011;57649;42.968;1.608;2024-01-30T14:15:02;6.68;;;2.90;;
70253;SDS011;57649;42.968;1.608;2024-01-30T14:17:28;6.03;;;3.08;;
70253;SDS011;57649;42.968;1.608;2024-01-30T14:19:53;6.82;;;2.45;;
70253;SDS011;57649;42.968;1.608;2024-01-30T14:22:19;8.32;;;3.78;;
70253;SDS011;57649;42.968;1.608;2024-01-30T14:24:44;5.93;;;2.47;;
70253;SDS011;57649;42.968;1.608;2024-01-30T14:27:10;6.18;;;2.83;;
70253;SDS011;57649;42.968;1.608;2024-01-30T14:29:35;8.98;;;3.20;;
70253;SDS011;57649;42.968;1.608;2024-01-30T14:35:23;7.20;;;2.70;;
70253;SDS011;57649;42.968;1.608;2024-01-30T14:37:48;6.20;;;2.78;;
70253;SDS011;57649;42.968;1.608;2024-01-30T14:40:14;4.68;;;2.78;;
70253;SDS011;57649;42.968;1.608;2024-01-30T14:42:39;5.90;;;2.80;;
70253;SDS011;57649;42.968;1.608;2024-01-30T14:45:05;6.57;;;3.22;;